createdAt,value
2017-09-23T00:00:08.032Z,0
2017-09-23T00:00:48.595Z,0
2017-09-23T00:01:29.164Z,0
2017-09-23T00:02:09.722Z,0
2017-09-23T00:02:50.813Z,0
2017-09-23T00:03:31.387Z,0
2017-09-23T00:04:11.987Z,0
2017-09-23T00:04:52.532Z,0
2017-09-23T00:05:33.080Z,0
2017-09-23T00:06:13.625Z,0
2017-09-23T00:06:54.186Z,0
2017-09-23T00:07:34.748Z,0
2017-09-23T00:08:15.319Z,0
2017-09-23T00:08:55.899Z,0
2017-09-23T00:09:36.450Z,0
2017-09-23T00:10:17.044Z,0
2017-09-23T00:10:57.583Z,0
2017-09-23T00:11:38.140Z,0
2017-09-23T00:12:18.698Z,0
2017-09-23T00:12:59.255Z,0
2017-09-23T00:13:39.816Z,0
2017-09-23T00:14:20.356Z,0
2017-09-23T00:15:00.918Z,0
2017-09-23T00:15:41.486Z,0
2017-09-23T00:16:22.056Z,0
2017-09-23T00:17:02.631Z,0
2017-09-23T00:17:43.213Z,0
2017-09-23T00:18:23.796Z,0
2017-09-23T00:19:04.382Z,0
2017-09-23T00:19:44.955Z,0
2017-09-23T00:20:25.537Z,0
2017-09-23T00:21:06.102Z,0
2017-09-23T00:21:46.661Z,0
2017-09-23T00:22:27.201Z,0
2017-09-23T00:23:07.771Z,0
2017-09-23T00:23:48.330Z,0
2017-09-23T00:24:28.897Z,0
2017-09-23T00:25:09.438Z,0
2017-09-23T00:25:49.986Z,0
2017-09-23T00:26:30.547Z,0
2017-09-23T00:27:11.108Z,0
2017-09-23T00:27:51.671Z,0
2017-09-23T00:28:32.230Z,0
2017-09-23T00:29:12.786Z,0
2017-09-23T00:29:53.346Z,0
2017-09-23T00:30:33.901Z,0
2017-09-23T00:31:14.461Z,0
2017-09-23T00:31:55.011Z,0
2017-09-23T00:32:35.576Z,0
2017-09-23T00:33:16.131Z,0
2017-09-23T00:33:56.678Z,0
2017-09-23T00:34:37.238Z,0
2017-09-23T00:35:17.809Z,0
2017-09-23T00:35:58.954Z,0
2017-09-23T00:36:39.519Z,0
2017-09-23T00:37:20.681Z,0
2017-09-23T00:38:01.231Z,0
2017-09-23T00:38:41.791Z,0
2017-09-23T00:39:22.360Z,0
2017-09-23T00:40:02.925Z,0
2017-09-23T00:40:43.507Z,0
2017-09-23T00:41:24.085Z,0
2017-09-23T00:42:04.656Z,0
2017-09-23T00:42:45.237Z,0
2017-09-23T00:43:25.815Z,0
2017-09-23T00:44:06.401Z,0
2017-09-23T00:44:46.965Z,0
2017-09-23T00:45:27.549Z,0
2017-09-23T00:46:08.137Z,0
2017-09-23T00:46:48.708Z,0
2017-09-23T00:47:29.295Z,0
2017-09-23T00:48:09.871Z,0
2017-09-23T00:48:50.447Z,0
2017-09-23T00:49:31.033Z,0
2017-09-23T00:50:11.614Z,0
2017-09-23T00:50:52.196Z,0
2017-09-23T00:51:32.776Z,0
2017-09-23T00:52:13.356Z,0
2017-09-23T00:52:53.941Z,0
2017-09-23T00:53:34.514Z,0
2017-09-23T00:54:15.129Z,0
2017-09-23T00:54:55.675Z,0
2017-09-23T00:55:36.243Z,0
2017-09-23T00:56:16.827Z,0
2017-09-23T00:56:57.408Z,0
2017-09-23T00:57:37.983Z,0
2017-09-23T00:58:18.560Z,0
2017-09-23T00:58:59.142Z,0
2017-09-23T00:59:39.706Z,0
2017-09-23T01:00:20.283Z,0
2017-09-23T01:01:00.868Z,0
2017-09-23T01:01:41.445Z,0
2017-09-23T01:02:22.019Z,0
2017-09-23T01:03:02.603Z,0
2017-09-23T01:03:43.185Z,0
2017-09-23T01:04:23.767Z,0
2017-09-23T01:05:04.379Z,0
2017-09-23T01:05:45.214Z,0
2017-09-23T01:06:25.776Z,0
2017-09-23T01:07:06.359Z,0
2017-09-23T01:07:46.945Z,0
2017-09-23T01:08:27.527Z,0
2017-09-23T01:09:08.102Z,0
2017-09-23T01:09:48.675Z,0
2017-09-23T01:10:29.259Z,0
2017-09-23T01:11:09.835Z,0
2017-09-23T01:11:50.416Z,0
2017-09-23T01:12:31.002Z,0
2017-09-23T01:13:11.583Z,0
2017-09-23T01:13:52.170Z,0
2017-09-23T01:14:32.742Z,0
2017-09-23T01:15:13.339Z,0
2017-09-23T01:15:53.903Z,0
2017-09-23T01:16:34.484Z,0
2017-09-23T01:17:15.084Z,0
2017-09-23T01:17:55.649Z,0
2017-09-23T01:18:36.219Z,0
2017-09-23T01:19:16.782Z,0
2017-09-23T01:19:57.367Z,0
2017-09-23T01:20:37.951Z,0
2017-09-23T01:21:18.555Z,0
2017-09-23T01:21:59.104Z,0
2017-09-23T01:22:39.680Z,0
2017-09-23T01:23:20.280Z,0
2017-09-23T01:24:00.908Z,0
2017-09-23T01:24:41.482Z,0
2017-09-23T01:25:22.057Z,0
2017-09-23T01:26:02.639Z,0
2017-09-23T01:26:43.218Z,0
2017-09-23T01:27:23.787Z,0
2017-09-23T01:28:04.350Z,0
2017-09-23T01:28:44.921Z,0
2017-09-23T01:29:25.499Z,0
2017-09-23T01:30:06.085Z,0
2017-09-23T01:30:46.666Z,0
2017-09-23T01:31:27.250Z,0
2017-09-23T01:32:07.805Z,0
2017-09-23T01:32:48.390Z,0
2017-09-23T01:33:28.961Z,0
2017-09-23T01:34:09.537Z,0
2017-09-23T01:34:50.111Z,0
2017-09-23T01:35:30.692Z,0
2017-09-23T01:36:11.288Z,0
2017-09-23T01:36:51.831Z,0
2017-09-23T01:37:32.402Z,0
2017-09-23T01:38:12.992Z,0
2017-09-23T01:38:54.075Z,0
2017-09-23T01:39:34.665Z,0
2017-09-23T01:40:15.252Z,0
2017-09-23T01:40:55.831Z,0
2017-09-23T01:41:36.411Z,0
2017-09-23T01:42:16.977Z,0
2017-09-23T01:42:57.536Z,0
2017-09-23T01:43:38.098Z,0
2017-09-23T01:44:18.673Z,0
2017-09-23T01:44:59.258Z,0
2017-09-23T01:45:39.815Z,0
2017-09-23T01:46:20.394Z,0
2017-09-23T01:47:00.971Z,0
2017-09-23T01:47:41.548Z,0
2017-09-23T01:48:22.105Z,0
2017-09-23T01:49:02.684Z,0
2017-09-23T01:49:43.269Z,0
2017-09-23T01:50:23.848Z,0
2017-09-23T01:51:04.425Z,0
2017-09-23T01:51:45.041Z,0
2017-09-23T01:52:25.595Z,0
2017-09-23T01:53:06.163Z,0
2017-09-23T01:53:46.746Z,0
2017-09-23T01:54:27.317Z,0
2017-09-23T01:55:07.897Z,0
2017-09-23T01:55:48.474Z,0
2017-09-23T01:56:29.085Z,0
2017-09-23T01:57:09.641Z,0
2017-09-23T01:57:50.205Z,0
2017-09-23T01:58:30.773Z,0
2017-09-23T01:59:11.329Z,0
2017-09-23T01:59:51.899Z,0
2017-09-23T02:00:32.476Z,0
2017-09-23T02:01:13.047Z,0
2017-09-23T02:01:53.623Z,0
2017-09-23T02:02:34.183Z,0
2017-09-23T02:03:14.772Z,0
2017-09-23T02:03:55.355Z,0
2017-09-23T02:04:35.934Z,0
2017-09-23T02:05:16.517Z,0
2017-09-23T02:05:57.099Z,0
2017-09-23T02:06:38.322Z,0
2017-09-23T02:07:19.722Z,0
2017-09-23T02:08:00.304Z,0
2017-09-23T02:08:40.881Z,0
2017-09-23T02:09:21.461Z,0
2017-09-23T02:10:02.038Z,0
2017-09-23T02:10:43.470Z,0
2017-09-23T02:11:24.060Z,0
2017-09-23T02:12:04.634Z,0
2017-09-23T02:12:45.218Z,0
2017-09-23T02:13:25.801Z,0
2017-09-23T02:14:06.379Z,0
2017-09-23T02:14:47.823Z,0
2017-09-23T02:15:28.405Z,0
2017-09-23T02:16:08.984Z,0
2017-09-23T02:16:49.559Z,0
2017-09-23T02:17:30.144Z,0
2017-09-23T02:18:10.711Z,0
2017-09-23T02:18:51.301Z,0
2017-09-23T02:19:32.454Z,0
2017-09-23T02:20:13.819Z,0
2017-09-23T02:20:54.394Z,0
2017-09-23T02:21:34.974Z,0
2017-09-23T02:22:15.554Z,0
2017-09-23T02:22:56.130Z,0
2017-09-23T02:23:36.698Z,0
2017-09-23T02:24:17.279Z,0
2017-09-23T02:24:57.854Z,0
2017-09-23T02:25:38.435Z,0
2017-09-23T02:26:19.014Z,0
2017-09-23T02:26:59.598Z,0
2017-09-23T02:27:40.167Z,0
2017-09-23T02:28:20.740Z,0
2017-09-23T02:29:01.318Z,0
2017-09-23T02:29:41.902Z,0
2017-09-23T02:30:22.479Z,0
2017-09-23T02:31:03.059Z,0
2017-09-23T02:31:43.641Z,0
2017-09-23T02:32:24.225Z,0
2017-09-23T02:33:04.803Z,0
2017-09-23T02:33:45.377Z,0
2017-09-23T02:34:25.961Z,0
2017-09-23T02:35:06.538Z,0
2017-09-23T02:35:47.117Z,0
2017-09-23T02:36:27.700Z,0
2017-09-23T02:37:08.275Z,0
2017-09-23T02:37:48.867Z,0
2017-09-23T02:38:29.442Z,0
2017-09-23T02:39:10.022Z,0
2017-09-23T02:39:50.609Z,0
2017-09-23T02:40:31.196Z,0
2017-09-23T02:41:11.761Z,0
2017-09-23T02:41:52.338Z,0
2017-09-23T02:42:32.924Z,0
2017-09-23T02:43:13.497Z,0
2017-09-23T02:43:54.082Z,0
2017-09-23T02:44:34.655Z,0
2017-09-23T02:45:15.222Z,0
2017-09-23T02:45:55.813Z,0
2017-09-23T02:46:36.380Z,0
2017-09-23T02:47:16.962Z,0
2017-09-23T02:47:57.532Z,0
2017-09-23T02:48:38.120Z,0
2017-09-23T02:49:18.704Z,0
2017-09-23T02:49:59.292Z,0
2017-09-23T02:50:39.842Z,0
2017-09-23T02:51:20.420Z,0
2017-09-23T02:52:00.998Z,0
2017-09-23T02:52:41.575Z,0
2017-09-23T02:53:22.156Z,0
2017-09-23T02:54:02.760Z,0
2017-09-23T02:54:43.339Z,0
2017-09-23T02:55:23.912Z,0
2017-09-23T02:56:04.490Z,0
2017-09-23T02:56:45.074Z,0
2017-09-23T02:57:25.677Z,0
2017-09-23T02:58:06.258Z,0
2017-09-23T02:58:46.838Z,0
2017-09-23T02:59:27.424Z,0
2017-09-23T03:00:08.009Z,0
2017-09-23T03:00:48.584Z,0
2017-09-23T03:01:29.161Z,0
2017-09-23T03:02:09.747Z,0
2017-09-23T03:02:50.324Z,0
2017-09-23T03:03:30.914Z,0
2017-09-23T03:04:11.488Z,0
2017-09-23T03:04:52.073Z,0
2017-09-23T03:05:32.655Z,0
2017-09-23T03:06:13.239Z,0
2017-09-23T03:06:53.822Z,0
2017-09-23T03:07:34.395Z,0
2017-09-23T03:08:14.983Z,0
2017-09-23T03:08:55.542Z,0
2017-09-23T03:09:36.127Z,0
2017-09-23T03:10:16.699Z,0
2017-09-23T03:10:57.281Z,0
2017-09-23T03:11:38.697Z,0
2017-09-23T03:12:19.278Z,0
2017-09-23T03:12:59.855Z,0
2017-09-23T03:13:40.440Z,0
2017-09-23T03:14:21.012Z,0
2017-09-23T03:15:01.596Z,0
2017-09-23T03:15:42.174Z,0
2017-09-23T03:16:22.749Z,0
2017-09-23T03:17:03.335Z,0
2017-09-23T03:17:43.915Z,0
2017-09-23T03:18:24.495Z,0
2017-09-23T03:19:05.084Z,0
2017-09-23T03:19:45.675Z,0
2017-09-23T03:20:26.228Z,0
2017-09-23T03:21:06.801Z,0
2017-09-23T03:21:47.372Z,0
2017-09-23T03:22:27.946Z,0
2017-09-23T03:23:08.529Z,0
2017-09-23T03:23:49.106Z,0
2017-09-23T03:24:29.696Z,0
2017-09-23T03:25:10.286Z,0
2017-09-23T03:25:50.857Z,0
2017-09-23T03:26:31.444Z,0
2017-09-23T03:27:12.023Z,0
2017-09-23T03:27:52.608Z,0
2017-09-23T03:28:33.189Z,0
2017-09-23T03:29:13.772Z,0
2017-09-23T03:29:54.339Z,0
2017-09-23T03:30:34.923Z,0
2017-09-23T03:31:15.504Z,0
2017-09-23T03:31:56.086Z,0
2017-09-23T03:32:36.672Z,0
2017-09-23T03:33:17.256Z,0
2017-09-23T03:33:57.837Z,0
2017-09-23T03:34:38.427Z,0
2017-09-23T03:35:19.000Z,0
2017-09-23T03:35:59.583Z,0
2017-09-23T03:36:40.166Z,0
2017-09-23T03:37:20.747Z,0
2017-09-23T03:38:01.326Z,0
2017-09-23T03:38:41.907Z,0
2017-09-23T03:39:22.483Z,0
2017-09-23T03:41:40.432Z,0
2017-09-23T03:42:21.010Z,0
2017-09-23T03:43:01.597Z,0
2017-09-23T03:43:42.178Z,0
2017-09-23T03:44:22.746Z,0
2017-09-23T03:45:03.325Z,0
2017-09-23T03:45:43.899Z,0
2017-09-23T03:46:24.467Z,0
2017-09-23T03:47:05.043Z,0
2017-09-23T03:47:45.618Z,0
2017-09-23T03:48:26.697Z,0
2017-09-23T03:49:07.266Z,0
2017-09-23T03:49:47.831Z,0
2017-09-23T03:50:28.406Z,0
2017-09-23T03:51:08.990Z,0
2017-09-23T03:51:49.571Z,0
2017-09-23T03:52:30.154Z,0
2017-09-23T03:53:10.711Z,0
2017-09-23T03:53:51.256Z,0
2017-09-23T03:54:31.817Z,0
2017-09-23T03:55:12.385Z,0
2017-09-23T03:55:52.946Z,0
2017-09-23T03:56:33.505Z,0
2017-09-23T03:58:51.443Z,0
2017-09-23T03:59:32.044Z,0
2017-09-23T04:00:12.626Z,0
2017-09-23T04:00:53.199Z,0
2017-09-23T04:01:33.758Z,0
2017-09-23T04:02:14.331Z,0
2017-09-23T04:02:54.905Z,0
2017-09-23T04:03:35.487Z,0
2017-09-23T04:05:53.440Z,0
2017-09-23T04:06:34.011Z,0
2017-09-23T04:07:14.585Z,0
2017-09-23T04:07:55.162Z,0
2017-09-23T04:08:35.756Z,0
2017-09-23T04:09:16.317Z,0
2017-09-23T04:09:56.907Z,0
2017-09-23T04:10:37.492Z,0
2017-09-23T04:11:18.068Z,0
2017-09-23T04:11:58.640Z,0
2017-09-23T04:12:39.205Z,0
2017-09-23T04:13:19.780Z,0
2017-09-23T04:14:00.372Z,0
2017-09-23T04:14:40.945Z,0
2017-09-23T04:15:21.522Z,0
2017-09-23T04:17:39.466Z,0
2017-09-23T04:18:20.042Z,0
2017-09-23T04:19:00.617Z,0
2017-09-23T04:19:41.199Z,0
2017-09-23T04:20:21.776Z,0
2017-09-23T04:21:02.361Z,0
2017-09-23T04:21:42.943Z,0
2017-09-23T04:22:23.523Z,0
2017-09-23T04:23:04.102Z,0
2017-09-23T04:23:44.678Z,0
2017-09-23T04:24:25.245Z,0
2017-09-23T04:25:05.818Z,0
2017-09-23T04:25:46.400Z,0
2017-09-23T04:26:26.971Z,0
2017-09-23T04:27:07.549Z,0
2017-09-23T04:27:48.121Z,0
2017-09-23T04:28:28.700Z,0
2017-09-23T04:29:09.280Z,0
2017-09-23T04:29:49.856Z,0
2017-09-23T04:30:30.438Z,0
2017-09-23T04:31:11.017Z,0
2017-09-23T04:31:51.601Z,0
2017-09-23T04:32:32.170Z,4
2017-09-23T04:33:12.732Z,4
2017-09-23T04:33:53.310Z,4
2017-09-23T04:34:33.885Z,0
2017-09-23T04:35:14.491Z,4
2017-09-23T04:35:55.056Z,4
2017-09-23T04:36:35.634Z,8
2017-09-23T04:37:16.205Z,4
2017-09-23T04:37:56.768Z,8
2017-09-23T04:38:37.333Z,4
2017-09-23T04:39:17.913Z,4
2017-09-23T04:39:58.484Z,8
2017-09-23T04:40:39.059Z,12
2017-09-23T04:41:19.627Z,12
2017-09-23T04:42:00.209Z,12
2017-09-23T04:42:40.773Z,12
2017-09-23T04:43:21.359Z,16
2017-09-23T04:44:01.936Z,20
2017-09-23T04:44:42.504Z,20
2017-09-23T04:45:23.079Z,24
2017-09-23T04:46:03.657Z,28
2017-09-23T04:46:44.231Z,28
2017-09-23T04:47:24.804Z,36
2017-09-23T04:48:05.386Z,40
2017-09-23T04:48:45.965Z,44
2017-09-23T04:49:26.543Z,48
2017-09-23T04:50:07.110Z,56
2017-09-23T04:50:47.677Z,64
2017-09-23T04:51:28.247Z,72
2017-09-23T04:52:08.825Z,80
2017-09-23T04:52:49.409Z,88
2017-09-23T04:53:29.991Z,100
2017-09-23T04:54:10.574Z,112
2017-09-23T04:54:51.161Z,120
2017-09-23T04:55:31.727Z,132
2017-09-23T04:56:12.302Z,148
2017-09-23T04:56:52.880Z,164
2017-09-23T04:57:33.467Z,176
2017-09-23T04:58:14.000Z,192
2017-09-23T04:58:54.545Z,212
2017-09-23T04:59:35.111Z,228
2017-09-23T05:00:15.688Z,248
2017-09-23T05:00:56.286Z,272
2017-09-23T05:01:36.846Z,292
2017-09-23T05:02:17.499Z,312
2017-09-23T05:02:58.071Z,336
2017-09-23T05:03:38.639Z,360
2017-09-23T05:04:19.214Z,388
2017-09-23T05:04:59.811Z,412
2017-09-23T05:05:40.438Z,436
2017-09-23T05:06:21.012Z,468
2017-09-23T05:07:01.594Z,496
2017-09-23T05:07:42.188Z,524
2017-09-23T05:08:23.381Z,560
2017-09-23T05:09:03.988Z,592
2017-09-23T05:09:44.704Z,620
2017-09-23T05:10:25.315Z,656
2017-09-23T05:11:05.910Z,692
2017-09-23T05:11:46.491Z,724
2017-09-23T05:12:27.106Z,760
2017-09-23T05:13:07.824Z,800
2017-09-23T05:13:48.415Z,840
2017-09-23T05:14:29.040Z,884
2017-09-23T05:15:09.627Z,920
2017-09-23T05:15:50.214Z,968
2017-09-23T05:16:30.827Z,1012
2017-09-23T05:17:11.449Z,1056
2017-09-23T05:17:52.028Z,1108
2017-09-23T05:18:32.649Z,1148
2017-09-23T05:19:13.319Z,1196
2017-09-23T05:19:53.932Z,1244
2017-09-23T05:20:34.535Z,1292
2017-09-23T05:21:15.143Z,1340
2017-09-23T05:21:55.751Z,1388
2017-09-23T05:22:36.408Z,1440
2017-09-23T05:23:17.020Z,1496
2017-09-23T05:23:57.598Z,1548
2017-09-23T05:24:38.210Z,1460
2017-09-23T05:25:18.841Z,1508
2017-09-23T05:25:59.466Z,1560
2017-09-23T05:26:40.046Z,1612
2017-09-23T05:27:20.659Z,1664
2017-09-23T05:28:01.340Z,1716
2017-09-23T05:28:41.983Z,1772
2017-09-23T05:29:22.605Z,1832
2017-09-23T05:30:03.270Z,1896
2017-09-23T05:30:43.865Z,1960
2017-09-23T05:31:24.520Z,2028
2017-09-23T05:32:05.107Z,2100
2017-09-23T05:32:45.783Z,2164
2017-09-23T05:33:26.391Z,2228
2017-09-23T05:34:07.015Z,2292
2017-09-23T05:34:47.584Z,2356
2017-09-23T05:35:28.212Z,2424
2017-09-23T05:36:08.874Z,2496
2017-09-23T05:36:49.631Z,2564
2017-09-23T05:37:30.241Z,2636
2017-09-23T05:38:10.817Z,2700
2017-09-23T05:38:51.386Z,2776
2017-09-23T05:39:31.966Z,2848
2017-09-23T05:40:12.541Z,2928
2017-09-23T05:40:53.120Z,3016
2017-09-23T05:41:33.717Z,3120
2017-09-23T05:42:14.283Z,3236
2017-09-23T05:42:54.865Z,3380
2017-09-23T05:43:35.424Z,3540
2017-09-23T05:44:16.019Z,3700
2017-09-23T05:44:56.593Z,3864
2017-09-23T05:45:37.169Z,4040
2017-09-23T05:46:17.742Z,4216
2017-09-23T05:46:58.318Z,4376
2017-09-23T05:47:38.993Z,4544
2017-09-23T05:48:19.548Z,4716
2017-09-23T05:49:00.164Z,4880
2017-09-23T05:49:40.734Z,5048
2017-09-23T05:50:21.307Z,5224
2017-09-23T05:51:01.913Z,5396
2017-09-23T05:51:42.530Z,5540
2017-09-23T05:52:23.113Z,5660
2017-09-23T05:53:03.695Z,5776
2017-09-23T05:53:44.271Z,5868
2017-09-23T05:54:24.838Z,5948
2017-09-23T05:55:05.441Z,6028
2017-09-23T05:55:46.018Z,6096
2017-09-23T05:56:26.588Z,6148
2017-09-23T05:57:07.173Z,6184
2017-09-23T05:57:47.747Z,6212
2017-09-23T05:58:28.331Z,6228
2017-09-23T05:59:08.906Z,6232
2017-09-23T05:59:49.496Z,6244
2017-09-23T06:00:30.079Z,6236
2017-09-23T06:01:10.650Z,6224
2017-09-23T06:01:51.238Z,6208
2017-09-23T06:02:31.817Z,6176
2017-09-23T06:03:12.396Z,6180
2017-09-23T06:03:52.975Z,6204
2017-09-23T06:04:33.549Z,6240
2017-09-23T06:05:14.130Z,6248
2017-09-23T06:05:54.712Z,6220
2017-09-23T06:06:35.283Z,6136
2017-09-23T06:07:15.871Z,6000
2017-09-23T06:07:56.444Z,5872
2017-09-23T06:08:37.038Z,5808
2017-09-23T06:09:17.609Z,5676
2017-09-23T06:09:58.174Z,5592
2017-09-23T06:10:38.843Z,5484
2017-09-23T06:11:19.526Z,5444
2017-09-23T06:12:00.252Z,5464
2017-09-23T06:12:40.939Z,5496
2017-09-23T06:13:21.674Z,5524
2017-09-23T06:14:02.255Z,5556
2017-09-23T06:14:42.837Z,5592
2017-09-23T06:15:23.555Z,5648
2017-09-23T06:16:04.420Z,5724
2017-09-23T06:16:45.089Z,5828
2017-09-23T06:17:25.659Z,5968
2017-09-23T06:18:06.244Z,6164
2017-09-23T06:18:47.066Z,6384
2017-09-23T06:19:27.633Z,6628
2017-09-23T06:20:08.223Z,6900
2017-09-23T06:20:48.808Z,7192
2017-09-23T06:21:29.655Z,7532
2017-09-23T06:22:10.375Z,7960
2017-09-23T06:22:51.114Z,8148
2017-09-23T06:23:32.062Z,8036
2017-09-23T06:24:12.946Z,7928
2017-09-23T06:24:53.528Z,7944
2017-09-23T06:25:34.113Z,8464
2017-09-23T06:26:14.681Z,8916
2017-09-23T06:26:55.266Z,8780
2017-09-23T06:27:35.853Z,8900
2017-09-23T06:28:16.508Z,9556
2017-09-23T06:28:57.085Z,10144
2017-09-23T06:29:37.812Z,10796
2017-09-23T06:30:18.458Z,11256
2017-09-23T06:30:59.181Z,11536
2017-09-23T06:31:39.855Z,11228
2017-09-23T06:32:20.436Z,11012
2017-09-23T06:33:01.016Z,11212
2017-09-23T06:33:41.613Z,12616
2017-09-23T06:34:22.287Z,12600
2017-09-23T06:35:02.951Z,12088
2017-09-23T06:35:43.528Z,12252
2017-09-23T06:36:24.309Z,12640
2017-09-23T06:37:04.930Z,12692
2017-09-23T06:37:45.673Z,14508
2017-09-23T06:38:26.327Z,13512
2017-09-23T06:39:06.927Z,16256
2017-09-23T06:39:47.519Z,13996
2017-09-23T06:40:28.073Z,13472
2017-09-23T06:41:08.756Z,12272
2017-09-23T06:41:49.629Z,11696
2017-09-23T06:42:30.372Z,11756
2017-09-23T06:43:11.013Z,11932
2017-09-23T06:43:51.596Z,11760
2017-09-23T06:44:32.175Z,11268
2017-09-23T06:45:12.831Z,10920
2017-09-23T06:45:53.505Z,10716
2017-09-23T06:46:34.143Z,10260
2017-09-23T06:47:14.835Z,9896
2017-09-23T06:47:55.452Z,9488
2017-09-23T06:48:36.174Z,9016
2017-09-23T06:49:16.762Z,8636
2017-09-23T06:49:57.420Z,8324
2017-09-23T06:50:38.798Z,8012
2017-09-23T06:51:18.716Z,7756
2017-09-23T06:51:59.315Z,7552
2017-09-23T06:52:40.034Z,7460
2017-09-23T06:53:20.828Z,7448
2017-09-23T06:54:01.571Z,7452
2017-09-23T06:54:42.441Z,7512
2017-09-23T06:55:23.103Z,7552
2017-09-23T06:56:03.726Z,7636
2017-09-23T06:56:44.507Z,7752
2017-09-23T06:57:25.079Z,7880
2017-09-23T06:58:05.664Z,8008
2017-09-23T06:58:46.439Z,8032
2017-09-23T06:59:27.037Z,7960
2017-09-23T07:00:07.629Z,7904
2017-09-23T07:00:48.203Z,7860
2017-09-23T07:01:28.785Z,7872
2017-09-23T07:02:09.357Z,7932
2017-09-23T07:02:49.933Z,7984
2017-09-23T07:03:30.513Z,8076
2017-09-23T07:04:11.094Z,8160
2017-09-23T07:04:51.914Z,8232
2017-09-23T07:05:33.568Z,8332
2017-09-23T07:06:14.462Z,8920
2017-09-23T07:06:55.326Z,9096
2017-09-23T07:07:36.230Z,9280
2017-09-23T07:08:17.963Z,9480
2017-09-23T07:08:58.924Z,9616
2017-09-23T07:09:40.223Z,9668
2017-09-23T07:10:20.981Z,9692
2017-09-23T07:11:01.586Z,9764
2017-09-23T07:11:42.168Z,9828
2017-09-23T07:12:23.012Z,9896
2017-09-23T07:13:03.587Z,9976
2017-09-23T07:13:44.175Z,10076
2017-09-23T07:14:24.782Z,10160
2017-09-23T07:15:05.372Z,10256
2017-09-23T07:15:45.954Z,10340
2017-09-23T07:16:26.536Z,10396
2017-09-23T07:17:07.110Z,10444
2017-09-23T07:17:47.702Z,10484
2017-09-23T07:18:28.290Z,10512
2017-09-23T07:19:08.875Z,10500
2017-09-23T07:19:49.454Z,10432
2017-09-23T07:20:30.036Z,10416
2017-09-23T07:21:10.606Z,10452
2017-09-23T07:21:51.204Z,10552
2017-09-23T07:22:31.831Z,10708
2017-09-23T07:23:12.414Z,10860
2017-09-23T07:23:52.991Z,11020
2017-09-23T07:24:33.582Z,11232
2017-09-23T07:25:14.146Z,11508
2017-09-23T07:25:54.722Z,11864
2017-09-23T07:26:35.307Z,12244
2017-09-23T07:27:15.915Z,12648
2017-09-23T07:27:56.467Z,13168
2017-09-23T07:28:37.045Z,13924
2017-09-23T07:29:17.621Z,14724
2017-09-23T07:29:58.200Z,14720
2017-09-23T07:30:38.781Z,14424
2017-09-23T07:31:19.363Z,14316
2017-09-23T07:31:59.947Z,14412
2017-09-23T07:32:40.527Z,14532
2017-09-23T07:33:21.110Z,14596
2017-09-23T07:34:01.690Z,14592
2017-09-23T07:34:42.276Z,14548
2017-09-23T07:35:22.853Z,14620
2017-09-23T07:36:03.415Z,14820
2017-09-23T07:36:43.997Z,14992
2017-09-23T07:37:24.577Z,15128
2017-09-23T07:38:05.149Z,15164
2017-09-23T07:38:45.730Z,15080
2017-09-23T07:39:26.312Z,14892
2017-09-23T07:40:06.893Z,14804
2017-09-23T07:40:47.481Z,14608
2017-09-23T07:41:28.041Z,14420
2017-09-23T07:42:08.624Z,14312
2017-09-23T07:42:49.203Z,14372
2017-09-23T07:43:29.787Z,14440
2017-09-23T07:44:10.373Z,14564
2017-09-23T07:44:50.953Z,14608
2017-09-23T07:45:31.525Z,14652
2017-09-23T07:46:12.108Z,14664
2017-09-23T07:46:52.693Z,14700
2017-09-23T07:47:33.280Z,14812
2017-09-23T07:48:28.491Z,14936
2017-09-23T07:49:09.072Z,15004
2017-09-23T07:49:49.654Z,14988
2017-09-23T07:50:30.239Z,14936
2017-09-23T07:51:10.810Z,14956
2017-09-23T07:51:51.384Z,15056
2017-09-23T07:52:31.965Z,15116
2017-09-23T07:53:12.545Z,15244
2017-09-23T07:53:53.130Z,15368
2017-09-23T07:54:33.712Z,15476
2017-09-23T07:55:14.291Z,15508
2017-09-23T07:55:54.883Z,15536
2017-09-23T07:56:35.445Z,15480
2017-09-23T07:57:16.021Z,15380
2017-09-23T07:57:56.591Z,15428
2017-09-23T07:58:37.171Z,15540
2017-09-23T07:59:17.753Z,15968
2017-09-23T07:59:58.334Z,16416
2017-09-23T08:00:38.915Z,19584
2017-09-23T08:01:19.495Z,16128
2017-09-23T08:02:00.082Z,15664
2017-09-23T08:02:40.667Z,15576
2017-09-23T08:03:21.249Z,15632
2017-09-23T08:04:01.834Z,16000
2017-09-23T08:04:42.415Z,16160
2017-09-23T08:05:22.998Z,16352
2017-09-23T08:06:03.590Z,16672
2017-09-23T08:06:44.172Z,16960
2017-09-23T08:07:24.741Z,17216
2017-09-23T08:08:05.324Z,17216
2017-09-23T08:08:45.910Z,17184
2017-09-23T08:09:26.502Z,17056
2017-09-23T08:10:07.085Z,17216
2017-09-23T08:10:47.664Z,17440
2017-09-23T08:11:28.272Z,17696
2017-09-23T08:12:08.884Z,17888
2017-09-23T08:12:49.434Z,18208
2017-09-23T08:13:30.005Z,18624
2017-09-23T08:14:10.582Z,19424
2017-09-23T08:14:51.167Z,18784
2017-09-23T08:15:31.746Z,18464
2017-09-23T08:16:12.323Z,18400
2017-09-23T08:16:52.894Z,18528
2017-09-23T08:17:33.480Z,18880
2017-09-23T08:18:14.065Z,19008
2017-09-23T08:18:54.652Z,19776
2017-09-23T08:19:35.224Z,21088
2017-09-23T08:20:15.812Z,22016
2017-09-23T08:20:56.402Z,22784
2017-09-23T08:21:36.986Z,34560
2017-09-23T08:22:17.553Z,25152
2017-09-23T08:22:58.133Z,29216
2017-09-23T08:23:38.725Z,27328
2017-09-23T08:24:19.307Z,24448
2017-09-23T08:24:59.887Z,24608
2017-09-23T08:25:40.470Z,25280
2017-09-23T08:26:21.056Z,26272
2017-09-23T08:27:01.637Z,28512
2017-09-23T08:27:42.222Z,27456
2017-09-23T08:28:22.805Z,27616
2017-09-23T08:29:03.389Z,29728
2017-09-23T08:29:43.977Z,60000
2017-09-23T08:30:24.561Z,49536
2017-09-23T08:31:05.137Z,59520
2017-09-23T08:31:45.718Z,44096
2017-09-23T08:32:26.305Z,36128
2017-09-23T08:33:06.883Z,59360
2017-09-23T08:33:47.473Z,36064
2017-09-23T08:34:28.065Z,31648
2017-09-23T08:35:08.648Z,29056
2017-09-23T08:35:49.234Z,32768
2017-09-23T08:36:29.823Z,30496
2017-09-23T08:37:10.404Z,51456
2017-09-23T08:37:50.993Z,42816
2017-09-23T08:38:31.567Z,43936
2017-09-23T08:39:12.164Z,65216
2017-09-23T08:39:52.752Z,57888
2017-09-23T08:40:33.336Z,64160
2017-09-23T08:41:13.927Z,64512
2017-09-23T08:41:54.514Z,64608
2017-09-23T08:42:35.103Z,36448
2017-09-23T08:43:15.693Z,48800
2017-09-23T08:43:56.281Z,66784
2017-09-23T08:44:36.865Z,63808
2017-09-23T08:45:17.456Z,68000
2017-09-23T08:45:58.043Z,68288
2017-09-23T08:46:38.635Z,56608
2017-09-23T08:47:19.230Z,63392
2017-09-23T08:47:59.821Z,33824
2017-09-23T08:48:40.412Z,34112
2017-09-23T08:49:21.001Z,63392
2017-09-23T08:50:01.594Z,63680
2017-09-23T08:50:42.185Z,64192
2017-09-23T08:51:22.774Z,66496
2017-09-23T08:52:03.370Z,66720
2017-09-23T08:52:43.949Z,53312
2017-09-23T08:53:24.536Z,65536
2017-09-23T08:54:05.132Z,60960
2017-09-23T08:54:45.720Z,56544
2017-09-23T08:55:26.301Z,59200
2017-09-23T08:56:06.890Z,59808
2017-09-23T08:56:47.484Z,55488
2017-09-23T08:57:28.064Z,58336
2017-09-23T08:58:08.662Z,51808
2017-09-23T08:58:49.254Z,65312
2017-09-23T08:59:29.851Z,65664
2017-09-23T09:00:10.441Z,55648
2017-09-23T09:00:51.032Z,58976
2017-09-23T09:01:31.631Z,38368
2017-09-23T09:02:12.217Z,56928
2017-09-23T09:02:52.848Z,59904
2017-09-23T09:03:33.421Z,59520
2017-09-23T09:04:14.014Z,58720
2017-09-23T09:04:54.601Z,55040
2017-09-23T09:05:35.198Z,58912
2017-09-23T09:06:15.796Z,60000
2017-09-23T09:06:56.389Z,61728
2017-09-23T09:07:36.973Z,62304
2017-09-23T09:08:17.574Z,62208
2017-09-23T09:08:58.172Z,61408
2017-09-23T09:09:38.751Z,62496
2017-09-23T09:10:19.346Z,61984
2017-09-23T09:10:59.944Z,62592
2017-09-23T09:11:41.413Z,63072
2017-09-23T09:12:21.995Z,62816
2017-09-23T09:13:02.598Z,62144
2017-09-23T09:13:43.180Z,62752
2017-09-23T09:14:23.760Z,62112
2017-09-23T09:15:04.355Z,61696
2017-09-23T09:15:44.953Z,61984
2017-09-23T09:16:25.546Z,63008
2017-09-23T09:17:06.135Z,63616
2017-09-23T09:17:46.718Z,64384
2017-09-23T09:18:27.316Z,64992
2017-09-23T09:19:07.935Z,65312
2017-09-23T09:19:48.503Z,64672
2017-09-23T09:20:29.092Z,63328
2017-09-23T09:21:09.676Z,62816
2017-09-23T09:21:50.269Z,62464
2017-09-23T09:22:30.875Z,62432
2017-09-23T09:23:11.456Z,62656
2017-09-23T09:23:52.072Z,63744
2017-09-23T09:24:32.674Z,64736
2017-09-23T09:25:13.262Z,65760
2017-09-23T09:25:53.861Z,66144
2017-09-23T09:26:34.449Z,65984
2017-09-23T09:27:15.038Z,65632
2017-09-23T09:27:55.632Z,64896
2017-09-23T09:28:36.221Z,64544
2017-09-23T09:29:16.821Z,63744
2017-09-23T09:29:57.405Z,63520
2017-09-23T09:30:38.018Z,63232